Magothy — WDE5803 — position and weather

sailwx.info

Track history (hours):
 
Tides and Currents Weather Stations Pressure Air Temp Water Temp Dewpoint Dewpoint Depression Visibility Wind Speed Wind Dir Waves Ship Positions

Magothy

Owner: Vane Line Bunkering, Inc., Philadelphia, PA. More information available from US FCC via Universal Licensing System and Coast Guard Vessel Documentation Center.

Last reported at 2017-Sep-26 10:30 UTC. Time now 2017-Sep-26 11:00 UTC.
Position N 39°43' W 075°31'.

Length 33 m; draft 5 m.

Type: Tow > 200 m length. MMSI: 367371810.

Date/timePositionNaut miles runAvg speedWind from/ knotsBaromVisibWave heightAir tempDewpointWater temp
2017-Sep-26 10:30N 39°43' W 075°31'0 0.0
2017-Sep-26 10:00N 39°43' W 075°31'0 0.0
2017-Sep-26 09:30N 39°43' W 075°31'0 0.0
2017-Sep-26 09:00N 39°43' W 075°31'0 0.0
2017-Sep-26 08:30N 39°43' W 075°31'0 0.0
2017-Sep-26 08:00N 39°43' W 075°31'0 0.0
2017-Sep-26 07:30N 39°43' W 075°31'0 0.0
2017-Sep-26 07:00N 39°43' W 075°31'0 0.0
2017-Sep-26 06:30N 39°43' W 075°31'0 0.0
2017-Sep-26 06:00N 39°43' W 075°31'0 0.0
2017-Sep-26 05:30N 39°43' W 075°31'0 0.0
2017-Sep-26 05:00N 39°43' W 075°31'0 0.0
2017-Sep-26 04:30N 39°43' W 075°31'0 0.0
2017-Sep-26 04:00N 39°43' W 075°31'0 0.0
2017-Sep-26 03:30N 39°43' W 075°31'0 0.0
2017-Sep-26 03:00N 39°43' W 075°31'0 0.0
2017-Sep-26 02:30N 39°43' W 075°31'0 0.0
2017-Sep-26 02:00N 39°43' W 075°31'0 0.0
2017-Sep-26 01:30N 39°43' W 075°31'0 0.0
2017-Sep-26 01:00N 39°43' W 075°31'0 0.0
2017-Sep-26 00:30N 39°43' W 075°31'0 0.0
2017-Sep-26 00:00N 39°43' W 075°31'0 0.5
2017-Sep-25 23:28N 39°43' W 075°31'0 0.0
2017-Sep-25 22:58N 39°43' W 075°31'0 0.0
2017-Sep-25 22:25N 39°43' W 075°31'0 0.0
2017-Sep-25 21:58N 39°43' W 075°31'0 0.0
2017-Sep-25 21:28N 39°43' W 075°31'0 0.0
2017-Sep-25 20:58N 39°43' W 075°31'0 0.0
2017-Sep-25 20:28N 39°43' W 075°31'0 0.0
2017-Sep-25 20:00N 39°43' W 075°31'0 0.0
2017-Sep-25 19:30N 39°43' W 075°31'0 0.0
2017-Sep-25 19:00N 39°43' W 075°31'1 1.1
2017-Sep-25 18:30N 39°43' W 075°30'3 6.8
2017-Sep-25 18:00N 39°46' W 075°28'3 5.9
2017-Sep-25 17:30N 39°48' W 075°26'2 4.5
2017-Sep-25 17:00N 39°49' W 075°23'4 7.2
2017-Sep-25 16:30N 39°51' W 075°19'4 8.3
2017-Sep-25 16:01N 39°52' W 075°14'4 8.5
2017-Sep-25 15:30N 39°53' W 075°08'1 1.1
2017-Sep-25 15:00N 39°54' W 075°08'0 0.0
2017-Sep-25 14:29N 39°54' W 075°08'0 0.0
2017-Sep-25 13:59N 39°54' W 075°08'0 0.0
2017-Sep-25 13:28N 39°54' W 075°08'0 0.0
2017-Sep-25 12:58N 39°54' W 075°08'0 0.0
2017-Sep-25 12:29N 39°54' W 075°08'0 0.0
2017-Sep-25 11:59N 39°54' W 075°08'0 0.4
2017-Sep-25 11:30N 39°54' W 075°08'0 0.4
2017-Sep-25 11:00N 39°54' W 075°08'0 0.7
2017-Sep-25 10:29N 39°54' W 075°08'0 0.0
2017-Sep-25 09:59N 39°54' W 075°08'0 0.0
2017-Sep-25 09:29N 39°54' W 075°08'0 0.0
2017-Sep-25 08:59N 39°54' W 075°08'0 0.0
2017-Sep-25 08:29N 39°54' W 075°08'0 0.0
2017-Sep-25 07:56N 39°54' W 075°08'0 0.0
2017-Sep-25 07:29N 39°54' W 075°08'0 0.0
2017-Sep-25 06:59N 39°54' W 075°08'1 2.0
2017-Sep-25 06:31N 39°53' W 075°09'3 5.4
2017-Sep-25 06:01N 39°54' W 075°12'0 0.0
2017-Sep-25 05:30N 39°54' W 075°12'0 0.0
2017-Sep-25 05:01N 39°54' W 075°12'0 0.0
2017-Sep-25 04:31N 39°54' W 075°12'0 0.0
2017-Sep-25 04:01N 39°54' W 075°12'0 0.0
2017-Sep-25 03:30N 39°54' W 075°12'0 0.0
2017-Sep-25 03:00N 39°54' W 075°12'0 0.0
2017-Sep-25 02:31N 39°54' W 075°12'0 0.0
2017-Sep-25 02:01N 39°54' W 075°12'0 0.0
2017-Sep-25 01:31N 39°54' W 075°12'0 0.0
2017-Sep-25 01:01N 39°54' W 075°12'0 0.0
2017-Sep-25 00:31N 39°54' W 075°12'0 0.2
2017-Sep-25 00:00N 39°54' W 075°12'0 0.8
2017-Sep-24 23:30N 39°54' W 075°12'3 6.5
2017-Sep-24 23:00N 39°51' W 075°15'4 8.8
2017-Sep-24 22:30N 39°51' W 075°20'5 9.1
2017-Sep-24 22:01N 39°48' W 075°25'5 9.1
2017-Sep-24 21:30N 39°45' W 075°29'5 9.7
2017-Sep-24 21:01N 39°40' W 075°32'5 9.1
2017-Sep-24 20:30N 39°36' W 075°34'3 5.8
2017-Sep-24 20:00N 39°33' W 075°35'4 7.8
2017-Sep-24 19:30N 39°33' W 075°40'4 8.1
2017-Sep-24 19:00N 39°32' W 075°45'4 7.6
2017-Sep-24 18:30N 39°32' W 075°50'5 9.2
2017-Sep-24 18:00N 39°30' W 075°56'5 9.9
2017-Sep-24 17:30N 39°26' W 076°00'5 9.8
2017-Sep-24 17:00N 39°23' W 076°05'1 2.9
2017-Sep-24 16:30N 39°23' W 076°07'4 8.6
2017-Sep-24 16:00N 39°20' W 076°11'5 9.7
2017-Sep-24 15:30N 39°16' W 076°14'5 9.5
2017-Sep-24 14:59N 39°11' W 076°17'5 9.2
2017-Sep-24 14:29N 39°07' W 076°19'4 7.7
2017-Sep-24 14:00N 39°04' W 076°21'4 8.1
2017-Sep-24 13:30N 39°00' W 076°23'4 9.0
2017-Sep-24 13:00N 38°56' W 076°25'5 9.5
2017-Sep-24 12:30N 38°51' W 076°26'5 9.6
2017-Sep-24 12:00N 38°47' W 076°28'5 9.4
2017-Sep-24 11:30N 38°42' W 076°28'5 9.4
2017-Sep-24 11:00N 38°37' W 076°28'5 9.3
2017-Sep-24 10:30N 38°32' W 076°27'18 9.3
2017-Sep-24 08:36N 38°16' W 076°18'1 9.3
2017-Sep-24 08:29N 38°15' W 076°18'4 9.3
2017-Sep-24 08:00N 38°11' W 076°16'5 9.5
2017-Sep-24 07:30N 38°06' W 076°14'5 9.4
2017-Sep-24 07:00N 38°02' W 076°14'5 9.8
2017-Sep-24 06:30N 37°57' W 076°12'5 9.5
2017-Sep-24 06:00N 37°52' W 076°10'5 9.8
2017-Sep-24 05:30N 37°48' W 076°12'49 8.6
2017-Sep-23 23:47N 36°59' W 076°02'2 6.5
2017-Sep-23 23:29N 36°58' W 076°00'4 7.0
2017-Sep-23 22:59N 36°55' W 075°57'3 7.0
2017-Sep-23 22:30N 36°52' W 075°55'4 8.3
2017-Sep-23 22:00N 36°49' W 075°53'  
2017-Sep-19 12:36N 27°02' W 079°58'1 6.8
2017-Sep-19 12:30N 27°02' W 079°58'3 6.6
2017-Sep-19 12:00N 26°59' W 079°58'3 7.0
2017-Sep-19 11:30N 26°55' W 079°58'4 7.3
2017-Sep-19 11:00N 26°51' W 079°59'33 6.1
2017-Sep-19 05:38N 26°19' W 080°01'1 5.3
2017-Sep-19 05:28N 26°18' W 080°01'3 5.5
2017-Sep-19 05:00N 26°15' W 080°01'3 6.5
2017-Sep-19 04:30N 26°12' W 080°01'4 7.0
2017-Sep-19 04:00N 26°09' W 080°02'2 4.5
2017-Sep-19 03:30N 26°06' W 080°02'1 2.1
2017-Sep-19 03:00N 26°07' W 080°03'3 6.6
2017-Sep-19 02:30N 26°06' W 080°06'1 1.6
2017-Sep-19 02:00N 26°05' W 080°07'0 0.8
2017-Sep-19 01:30N 26°06' W 080°07'0 0.2
2017-Sep-19 01:00N 26°06' W 080°07'0 0.0
2017-Sep-19 00:30N 26°06' W 080°07'0 0.0
2017-Sep-19 00:00N 26°06' W 080°07'2 0.5
2017-Sep-18 20:52N 26°06' W 080°06'2 0.3
2017-Sep-18 15:37N 26°06' W 080°07'0 0.0
2017-Sep-18 15:30N 26°06' W 080°07'0 0.0
2017-Sep-18 15:00N 26°06' W 080°07'0 0.0
2017-Sep-18 14:30N 26°06' W 080°07'0 0.0
2017-Sep-18 14:00N 26°06' W 080°07'0 0.0
2017-Sep-18 13:30N 26°06' W 080°07'0 0.0
2017-Sep-18 13:00N 26°06' W 080°07'0 0.0
2017-Sep-18 12:30N 26°06' W 080°07'0 0.3
2017-Sep-18 12:00N 26°06' W 080°07'0 0.0
2017-Sep-18 11:29N 26°06' W 080°07'2 4.2
2017-Sep-18 11:00N 26°06' W 080°05'1 1.2
2017-Sep-18 10:30N 26°05' W 080°05'3 5.6
2017-Sep-18 10:00N 26°02' W 080°04'3 5.4
2017-Sep-18 09:30N 25°60' W 080°04'1 1.5
2017-Sep-18 09:00N 25°59' W 080°03'2 4.8
2017-Sep-18 08:30N 26°02' W 080°03'1 1.9
2017-Sep-18 08:00N 26°01' W 080°04'2 4.5
2017-Sep-18 07:30N 25°59' W 080°03'2 4.8
2017-Sep-18 07:00N 25°57' W 080°03'2 4.7
2017-Sep-18 06:30N 25°55' W 080°02'2 3.4
2017-Sep-18 06:00N 25°53' W 080°03'2 4.7
2017-Sep-18 05:30N 25°55' W 080°03'2 4.7
2017-Sep-18 05:01N 25°58' W 080°03'2 4.6
2017-Sep-18 04:30N 25°60' W 080°03'2 4.5
2017-Sep-18 03:59N 26°02' W 080°03'2 1.4
2017-Sep-18 02:26N 26°00' W 080°03'2 4.5
2017-Sep-18 02:00N 25°58' W 080°03'2 4.4
2017-Sep-18 01:30N 25°56' W 080°03'2 4.1
2017-Sep-18 01:00N 25°54' W 080°02'1 2.8
2017-Sep-18 00:30N 25°55' W 080°01'2 4.0
2017-Sep-18 00:00N 25°57' W 080°01'2 3.9
2017-Sep-17 23:30N 25°59' W 080°01'1 2.0
2017-Sep-17 22:52N 25°59' W 080°03'2 4.6
2017-Sep-17 22:30N 25°57' W 080°03'2 4.8
2017-Sep-17 21:59N 25°54' W 080°02'2 4.8
2017-Sep-17 21:30N 25°52' W 080°03'1 2.3
2017-Sep-17 21:00N 25°51' W 080°02'2 3.5
2017-Sep-17 20:30N 25°53' W 080°01'2 3.5
2017-Sep-17 20:00N 25°55' W 080°01'2 3.6
2017-Sep-17 19:30N 25°57' W 080°01'2 3.7
2017-Sep-17 19:00N 25°58' W 080°01'2 3.9
2017-Sep-17 18:29N 25°57' W 080°01'4 8.5
2017-Sep-17 18:00N 25°52' W 080°01'4 8.6
2017-Sep-17 17:30N 25°48' W 080°01'4 8.7
2017-Sep-17 17:00N 25°44' W 080°01'4 8.5
2017-Sep-17 16:30N 25°40' W 080°01'4 7.3
2017-Sep-17 16:00N 25°36' W 080°01'3 6.0
2017-Sep-17 15:30N 25°33' W 080°01'3 5.6
2017-Sep-17 15:00N 25°30' W 080°01'  
Track history (hours):
 
Tides and Currents Weather Stations Pressure Air Temp Water Temp Dewpoint Dewpoint Depression Visibility Wind Speed Wind Dir Waves Ship Positions

Magothy

Owner: Vane Line Bunkering, Inc., Philadelphia, PA. More information available from US FCC via Universal Licensing System and Coast Guard Vessel Documentation Center.

Last reported at 2017-Sep-26 10:30 UTC. Time now 2017-Sep-26 11:00 UTC.
Position N 39°43' W 075°31'.

Length 33 m; draft 5 m.

Type: Tow > 200 m length. MMSI: 367371810.

Date/timePositionNaut miles runAvg speedWind from/ knotsBaromVisibWave heightAir tempDewpointWater temp
2017-Sep-26 10:30N 39°43' W 075°31'0 0.0
2017-Sep-26 10:00N 39°43' W 075°31'0 0.0
2017-Sep-26 09:30N 39°43' W 075°31'0 0.0
2017-Sep-26 09:00N 39°43' W 075°31'0 0.0
2017-Sep-26 08:30N 39°43' W 075°31'0 0.0
2017-Sep-26 08:00N 39°43' W 075°31'0 0.0
2017-Sep-26 07:30N 39°43' W 075°31'0 0.0
2017-Sep-26 07:00N 39°43' W 075°31'0 0.0
2017-Sep-26 06:30N 39°43' W 075°31'0 0.0
2017-Sep-26 06:00N 39°43' W 075°31'0 0.0
2017-Sep-26 05:30N 39°43' W 075°31'0 0.0
2017-Sep-26 05:00N 39°43' W 075°31'0 0.0
2017-Sep-26 04:30N 39°43' W 075°31'0 0.0
2017-Sep-26 04:00N 39°43' W 075°31'0 0.0
2017-Sep-26 03:30N 39°43' W 075°31'0 0.0
2017-Sep-26 03:00N 39°43' W 075°31'0 0.0
2017-Sep-26 02:30N 39°43' W 075°31'0 0.0
2017-Sep-26 02:00N 39°43' W 075°31'0 0.0
2017-Sep-26 01:30N 39°43' W 075°31'0 0.0
2017-Sep-26 01:00N 39°43' W 075°31'0 0.0
2017-Sep-26 00:30N 39°43' W 075°31'0 0.0
2017-Sep-26 00:00N 39°43' W 075°31'0 0.5
2017-Sep-25 23:28N 39°43' W 075°31'0 0.0
2017-Sep-25 22:58N 39°43' W 075°31'0 0.0
2017-Sep-25 22:25N 39°43' W 075°31'0 0.0
2017-Sep-25 21:58N 39°43' W 075°31'0 0.0
2017-Sep-25 21:28N 39°43' W 075°31'0 0.0
2017-Sep-25 20:58N 39°43' W 075°31'0 0.0
2017-Sep-25 20:28N 39°43' W 075°31'0 0.0
2017-Sep-25 20:00N 39°43' W 075°31'0 0.0
2017-Sep-25 19:30N 39°43' W 075°31'0 0.0
2017-Sep-25 19:00N 39°43' W 075°31'1 1.1
2017-Sep-25 18:30N 39°43' W 075°30'3 6.8
2017-Sep-25 18:00N 39°46' W 075°28'3 5.9
2017-Sep-25 17:30N 39°48' W 075°26'2 4.5
2017-Sep-25 17:00N 39°49' W 075°23'4 7.2
2017-Sep-25 16:30N 39°51' W 075°19'4 8.3
2017-Sep-25 16:01N 39°52' W 075°14'4 8.5
2017-Sep-25 15:30N 39°53' W 075°08'1 1.1
2017-Sep-25 15:00N 39°54' W 075°08'0 0.0
2017-Sep-25 14:29N 39°54' W 075°08'0 0.0
2017-Sep-25 13:59N 39°54' W 075°08'0 0.0
2017-Sep-25 13:28N 39°54' W 075°08'0 0.0
2017-Sep-25 12:58N 39°54' W 075°08'0 0.0
2017-Sep-25 12:29N 39°54' W 075°08'0 0.0
2017-Sep-25 11:59N 39°54' W 075°08'0 0.4
2017-Sep-25 11:30N 39°54' W 075°08'0 0.4
2017-Sep-25 11:00N 39°54' W 075°08'0 0.7
2017-Sep-25 10:29N 39°54' W 075°08'0 0.0
2017-Sep-25 09:59N 39°54' W 075°08'0 0.0
2017-Sep-25 09:29N 39°54' W 075°08'0 0.0
2017-Sep-25 08:59N 39°54' W 075°08'0 0.0
2017-Sep-25 08:29N 39°54' W 075°08'0 0.0
2017-Sep-25 07:56N 39°54' W 075°08'0 0.0
2017-Sep-25 07:29N 39°54' W 075°08'0 0.0
2017-Sep-25 06:59N 39°54' W 075°08'1 2.0
2017-Sep-25 06:31N 39°53' W 075°09'3 5.4
2017-Sep-25 06:01N 39°54' W 075°12'0 0.0
2017-Sep-25 05:30N 39°54' W 075°12'0 0.0
2017-Sep-25 05:01N 39°54' W 075°12'0 0.0
2017-Sep-25 04:31N 39°54' W 075°12'0 0.0
2017-Sep-25 04:01N 39°54' W 075°12'0 0.0
2017-Sep-25 03:30N 39°54' W 075°12'0 0.0
2017-Sep-25 03:00N 39°54' W 075°12'0 0.0
2017-Sep-25 02:31N 39°54' W 075°12'0 0.0
2017-Sep-25 02:01N 39°54' W 075°12'0 0.0
2017-Sep-25 01:31N 39°54' W 075°12'0 0.0
2017-Sep-25 01:01N 39°54' W 075°12'0 0.0
2017-Sep-25 00:31N 39°54' W 075°12'0 0.2
2017-Sep-25 00:00N 39°54' W 075°12'0 0.8
2017-Sep-24 23:30N 39°54' W 075°12'3 6.5
2017-Sep-24 23:00N 39°51' W 075°15'4 8.8
2017-Sep-24 22:30N 39°51' W 075°20'5 9.1
2017-Sep-24 22:01N 39°48' W 075°25'5 9.1
2017-Sep-24 21:30N 39°45' W 075°29'5 9.7
2017-Sep-24 21:01N 39°40' W 075°32'5 9.1
2017-Sep-24 20:30N 39°36' W 075°34'3 5.8
2017-Sep-24 20:00N 39°33' W 075°35'4 7.8
2017-Sep-24 19:30N 39°33' W 075°40'4 8.1
2017-Sep-24 19:00N 39°32' W 075°45'4 7.6
2017-Sep-24 18:30N 39°32' W 075°50'5 9.2
2017-Sep-24 18:00N 39°30' W 075°56'5 9.9
2017-Sep-24 17:30N 39°26' W 076°00'5 9.8
2017-Sep-24 17:00N 39°23' W 076°05'1 2.9
2017-Sep-24 16:30N 39°23' W 076°07'4 8.6
2017-Sep-24 16:00N 39°20' W 076°11'5 9.7
2017-Sep-24 15:30N 39°16' W 076°14'5 9.5
2017-Sep-24 14:59N 39°11' W 076°17'5 9.2
2017-Sep-24 14:29N 39°07' W 076°19'4 7.7
2017-Sep-24 14:00N 39°04' W 076°21'4 8.1
2017-Sep-24 13:30N 39°00' W 076°23'4 9.0
2017-Sep-24 13:00N 38°56' W 076°25'5 9.5
2017-Sep-24 12:30N 38°51' W 076°26'5 9.6
2017-Sep-24 12:00N 38°47' W 076°28'5 9.4
2017-Sep-24 11:30N 38°42' W 076°28'5 9.4
2017-Sep-24 11:00N 38°37' W 076°28'5 9.3
2017-Sep-24 10:30N 38°32' W 076°27'18 9.3
2017-Sep-24 08:36N 38°16' W 076°18'1 9.3
2017-Sep-24 08:29N 38°15' W 076°18'4 9.3
2017-Sep-24 08:00N 38°11' W 076°16'5 9.5
2017-Sep-24 07:30N 38°06' W 076°14'5 9.4
2017-Sep-24 07:00N 38°02' W 076°14'5 9.8
2017-Sep-24 06:30N 37°57' W 076°12'5 9.5
2017-Sep-24 06:00N 37°52' W 076°10'5 9.8
2017-Sep-24 05:30N 37°48' W 076°12'49 8.6
2017-Sep-23 23:47N 36°59' W 076°02'2 6.5
2017-Sep-23 23:29N 36°58' W 076°00'4 7.0
2017-Sep-23 22:59N 36°55' W 075°57'3 7.0
2017-Sep-23 22:30N 36°52' W 075°55'4 8.3
2017-Sep-23 22:00N 36°49' W 075°53'  
2017-Sep-19 12:36N 27°02' W 079°58'1 6.8
2017-Sep-19 12:30N 27°02' W 079°58'3 6.6
2017-Sep-19 12:00N 26°59' W 079°58'3 7.0
2017-Sep-19 11:30N 26°55' W 079°58'4 7.3
2017-Sep-19 11:00N 26°51' W 079°59'33 6.1
2017-Sep-19 05:38N 26°19' W 080°01'1 5.3
2017-Sep-19 05:28N 26°18' W 080°01'3 5.5
2017-Sep-19 05:00N 26°15' W 080°01'3 6.5
2017-Sep-19 04:30N 26°12' W 080°01'4 7.0
2017-Sep-19 04:00N 26°09' W 080°02'2 4.5
2017-Sep-19 03:30N 26°06' W 080°02'1 2.1
2017-Sep-19 03:00N 26°07' W 080°03'3 6.6
2017-Sep-19 02:30N 26°06' W 080°06'1 1.6
2017-Sep-19 02:00N 26°05' W 080°07'0 0.8
2017-Sep-19 01:30N 26°06' W 080°07'0 0.2
2017-Sep-19 01:00N 26°06' W 080°07'0 0.0
2017-Sep-19 00:30N 26°06' W 080°07'0 0.0
2017-Sep-19 00:00N 26°06' W 080°07'2 0.5
2017-Sep-18 20:52N 26°06' W 080°06'2 0.3
2017-Sep-18 15:37N 26°06' W 080°07'0 0.0
2017-Sep-18 15:30N 26°06' W 080°07'0 0.0
2017-Sep-18 15:00N 26°06' W 080°07'0 0.0
2017-Sep-18 14:30N 26°06' W 080°07'0 0.0
2017-Sep-18 14:00N 26°06' W 080°07'0 0.0
2017-Sep-18 13:30N 26°06' W 080°07'0 0.0
2017-Sep-18 13:00N 26°06' W 080°07'0 0.0
2017-Sep-18 12:30N 26°06' W 080°07'0 0.3
2017-Sep-18 12:00N 26°06' W 080°07'0 0.0
2017-Sep-18 11:29N 26°06' W 080°07'2 4.2
2017-Sep-18 11:00N 26°06' W 080°05'1 1.2
2017-Sep-18 10:30N 26°05' W 080°05'3 5.6
2017-Sep-18 10:00N 26°02' W 080°04'3 5.4
2017-Sep-18 09:30N 25°60' W 080°04'1 1.5
2017-Sep-18 09:00N 25°59' W 080°03'2 4.8
2017-Sep-18 08:30N 26°02' W 080°03'1 1.9
2017-Sep-18 08:00N 26°01' W 080°04'2 4.5
2017-Sep-18 07:30N 25°59' W 080°03'2 4.8
2017-Sep-18 07:00N 25°57' W 080°03'2 4.7
2017-Sep-18 06:30N 25°55' W 080°02'2 3.4
2017-Sep-18 06:00N 25°53' W 080°03'2 4.7
2017-Sep-18 05:30N 25°55' W 080°03'2 4.7
2017-Sep-18 05:01N 25°58' W 080°03'2 4.6
2017-Sep-18 04:30N 25°60' W 080°03'2 4.5
2017-Sep-18 03:59N 26°02' W 080°03'2 1.4
2017-Sep-18 02:26N 26°00' W 080°03'2 4.5
2017-Sep-18 02:00N 25°58' W 080°03'2 4.4
2017-Sep-18 01:30N 25°56' W 080°03'2 4.1
2017-Sep-18 01:00N 25°54' W 080°02'1 2.8
2017-Sep-18 00:30N 25°55' W 080°01'2 4.0
2017-Sep-18 00:00N 25°57' W 080°01'2 3.9
2017-Sep-17 23:30N 25°59' W 080°01'1 2.0
2017-Sep-17 22:52N 25°59' W 080°03'2 4.6
2017-Sep-17 22:30N 25°57' W 080°03'2 4.8
2017-Sep-17 21:59N 25°54' W 080°02'2 4.8
2017-Sep-17 21:30N 25°52' W 080°03'1 2.3
2017-Sep-17 21:00N 25°51' W 080°02'2 3.5
2017-Sep-17 20:30N 25°53' W 080°01'2 3.5
2017-Sep-17 20:00N 25°55' W 080°01'2 3.6
2017-Sep-17 19:30N 25°57' W 080°01'2 3.7
2017-Sep-17 19:00N 25°58' W 080°01'2 3.9
2017-Sep-17 18:29N 25°57' W 080°01'4 8.5
2017-Sep-17 18:00N 25°52' W 080°01'4 8.6
2017-Sep-17 17:30N 25°48' W 080°01'4 8.7
2017-Sep-17 17:00N 25°44' W 080°01'4 8.5
2017-Sep-17 16:30N 25°40' W 080°01'4 7.3
2017-Sep-17 16:00N 25°36' W 080°01'3 6.0
2017-Sep-17 15:30N 25°33' W 080°01'3 5.6
2017-Sep-17 15:00N 25°30' W 080°01'  

Dump ship's entire track history